createdAt,value
2023-03-02T00:01:29.152Z,80.60
2023-03-02T00:03:59.287Z,81.10
2023-03-02T00:06:30.097Z,81.70
2023-03-02T00:09:02.650Z,81.70
2023-03-02T00:11:31.877Z,82.20
2023-03-02T00:13:59.173Z,81.80
2023-03-02T00:16:26.680Z,81.40
2023-03-02T00:18:53.970Z,81.40
2023-03-02T00:21:21.411Z,81.10
2023-03-02T00:23:48.780Z,81.20
2023-03-02T00:26:16.028Z,81.60
2023-03-02T00:28:43.412Z,81.70
2023-03-02T00:31:11.350Z,80.70
2023-03-02T00:33:38.642Z,80.10
2023-03-02T00:36:06.428Z,79.60
2023-03-02T00:38:33.699Z,79.80
2023-03-02T00:41:01.095Z,79.20
2023-03-02T00:43:29.289Z,78.90
2023-03-02T00:45:56.751Z,78.60
2023-03-02T00:48:24.000Z,79.00
2023-03-02T00:50:51.549Z,78.90
2023-03-02T00:53:18.861Z,78.90
2023-03-02T00:55:54.662Z,78.70
2023-03-02T00:58:23.458Z,78.90
2023-03-02T01:00:51.068Z,79.10
2023-03-02T01:03:20.123Z,78.90
2023-03-02T01:05:48.240Z,78.80
2023-03-02T01:08:15.870Z,78.60
2023-03-02T01:10:43.389Z,78.90
2023-03-02T01:13:10.636Z,79.10
2023-03-02T01:15:37.970Z,79.20
2023-03-02T01:18:05.535Z,79.10
2023-03-02T01:20:32.825Z,79.00
2023-03-02T01:23:00.229Z,79.10
2023-03-02T01:25:27.578Z,78.70
2023-03-02T01:27:55.647Z,78.50
2023-03-02T01:30:23.067Z,78.30
2023-03-02T01:32:50.512Z,78.30
2023-03-02T01:35:17.923Z,78.50
2023-03-02T01:37:45.297Z,78.50
2023-03-02T01:40:14.667Z,78.30
2023-03-02T01:42:51.141Z,78.40
2023-03-02T01:45:49.128Z,78.40
2023-03-02T01:48:29.404Z,78.20
2023-03-02T01:50:57.737Z,78.00
2023-03-02T01:53:29.720Z,77.80
2023-03-02T01:56:00.590Z,78.00
2023-03-02T01:58:31.765Z,78.30
2023-03-02T02:00:59.286Z,78.70
2023-03-02T02:03:28.695Z,79.10
2023-03-02T02:06:12.040Z,79.40
2023-03-02T02:08:40.078Z,79.80
2023-03-02T02:11:07.594Z,80.20
2023-03-02T02:13:35.084Z,80.30
2023-03-02T02:16:02.738Z,80.60
2023-03-02T02:18:30.158Z,80.70
2023-03-02T02:20:57.685Z,81.10
2023-03-02T02:23:29.786Z,81.00
2023-03-02T02:26:06.898Z,80.90
2023-03-02T02:28:42.461Z,80.70
2023-03-02T02:31:15.432Z,80.40
2023-03-02T02:33:45.745Z,80.70
2023-03-02T02:36:27.448Z,80.90
2023-03-02T02:38:56.735Z,81.30
2023-03-02T02:41:29.598Z,81.40
2023-03-02T02:43:57.329Z,82.00
2023-03-02T02:46:25.729Z,82.10
2023-03-02T02:48:54.092Z,82.00
2023-03-02T02:51:30.250Z,82.00
2023-03-02T02:54:03.949Z,81.90
2023-03-02T02:56:39.399Z,82.10
2023-03-02T02:59:21.860Z,82.40
2023-03-02T03:01:51.106Z,82.60
2023-03-02T03:04:22.192Z,82.80
2023-03-02T03:06:58.920Z,82.90
2023-03-02T03:09:27.899Z,83.00
2023-03-02T03:12:15.441Z,83.50
2023-03-02T03:14:43.589Z,83.70
2023-03-02T03:17:14.619Z,83.90
2023-03-02T03:19:48.961Z,84.20
2023-03-02T03:22:17.622Z,84.20
2023-03-02T03:24:47.449Z,84.60
2023-03-02T03:27:17.149Z,84.90
2023-03-02T03:29:50.145Z,85.00
2023-03-02T03:32:20.061Z,85.20
2023-03-02T03:34:49.819Z,85.60
2023-03-02T03:37:23.985Z,85.80
2023-03-02T03:39:52.083Z,86.10
2023-03-02T03:42:20.104Z,86.90
2023-03-02T03:44:47.888Z,87.10
2023-03-02T03:47:15.454Z,87.50
2023-03-02T03:49:43.292Z,87.50
2023-03-02T03:52:11.412Z,87.80
2023-03-02T03:54:38.863Z,87.90
2023-03-02T03:57:07.302Z,88.00
2023-03-02T03:59:35.270Z,88.50
2023-03-02T04:02:04.070Z,88.40
2023-03-02T04:04:37.568Z,88.50
2023-03-02T04:07:12.685Z,88.80
2023-03-02T04:09:40.462Z,88.60
2023-03-02T04:12:11.117Z,88.50
2023-03-02T04:14:41.267Z,88.80
2023-03-02T04:17:08.746Z,88.50
2023-03-02T04:19:41.163Z,88.60
2023-03-02T04:22:09.361Z,88.20
2023-03-02T04:24:36.717Z,88.10
2023-03-02T04:27:05.223Z,88.00
2023-03-02T04:29:34.319Z,88.00
2023-03-02T04:32:03.861Z,87.80
2023-03-02T04:34:33.992Z,87.70
2023-03-02T04:37:01.719Z,87.50
2023-03-02T04:39:28.988Z,87.20
2023-03-02T04:41:56.527Z,87.00
2023-03-02T04:44:23.897Z,86.80
2023-03-02T04:46:51.735Z,86.60
2023-03-02T04:49:20.358Z,86.30
2023-03-02T04:51:49.729Z,86.30
2023-03-02T04:54:24.400Z,86.10
2023-03-02T04:56:52.674Z,85.90
2023-03-02T04:59:26.168Z,85.80
2023-03-02T05:01:58.878Z,85.90
2023-03-02T05:04:27.959Z,85.90
2023-03-02T05:06:55.482Z,86.10
2023-03-02T05:09:27.467Z,87.00
2023-03-02T05:11:55.844Z,88.00
2023-03-02T05:14:24.231Z,89.10
2023-03-02T05:16:51.562Z,90.10
2023-03-02T05:19:19.309Z,90.60
2023-03-02T05:21:46.926Z,91.00
2023-03-02T05:24:15.099Z,91.20
2023-03-02T05:26:42.670Z,91.40
2023-03-02T05:29:10.120Z,91.60
2023-03-02T05:31:40.915Z,91.80
2023-03-02T05:34:11.204Z,91.90
2023-03-02T05:36:39.072Z,91.80
2023-03-02T05:39:07.430Z,91.90
2023-03-02T05:41:36.013Z,91.70
2023-03-02T05:44:03.825Z,91.70
2023-03-02T05:46:31.537Z,91.60
2023-03-02T05:48:59.155Z,91.40
2023-03-02T05:51:26.752Z,91.40
2023-03-02T05:53:54.335Z,91.40
2023-03-02T05:56:22.687Z,91.50
2023-03-02T05:58:50.510Z,91.60
2023-03-02T06:01:17.810Z,91.60
2023-03-02T06:03:45.149Z,91.50
2023-03-02T06:06:14.483Z,91.40
2023-03-02T06:08:42.937Z,91.30
2023-03-02T06:11:11.442Z,91.20
2023-03-02T06:13:39.498Z,91.20
2023-03-02T06:16:07.257Z,90.80
2023-03-02T06:18:35.029Z,90.50
2023-03-02T06:21:02.943Z,89.80
2023-03-02T06:23:30.601Z,89.20
2023-03-02T06:25:58.416Z,88.80
2023-03-02T06:28:26.964Z,88.20
2023-03-02T06:30:54.399Z,87.80
2023-03-02T06:33:22.238Z,87.20
2023-03-02T06:35:50.606Z,86.70
2023-03-02T06:38:18.138Z,86.30
2023-03-02T06:40:45.584Z,86.10
2023-03-02T06:43:13.046Z,85.40
2023-03-02T06:45:40.866Z,85.00
2023-03-02T06:48:08.349Z,84.20
2023-03-02T06:50:35.736Z,83.40
2023-03-02T06:53:03.093Z,82.90
2023-03-02T06:55:30.635Z,82.40
2023-03-02T06:57:57.994Z,81.80
2023-03-02T07:00:28.114Z,81.30
2023-03-02T07:02:56.612Z,80.70
2023-03-02T07:05:24.706Z,80.40
2023-03-02T07:07:52.095Z,80.10
2023-03-02T07:10:19.519Z,79.40
2023-03-02T07:12:46.915Z,78.30
2023-03-02T07:15:14.663Z,77.50
2023-03-02T07:17:43.888Z,76.60
2023-03-02T07:20:13.935Z,76.60
2023-03-02T07:22:42.106Z,75.30
2023-03-02T07:25:10.684Z,74.80
2023-03-02T07:27:38.403Z,73.90
2023-03-02T07:30:06.888Z,73.40
2023-03-02T07:32:34.591Z,72.30
2023-03-02T07:35:01.967Z,70.30
2023-03-02T07:37:30.134Z,68.50
2023-03-02T07:39:59.187Z,67.60
2023-03-02T07:42:27.670Z,66.90
2023-03-02T07:44:59.225Z,65.70
2023-03-02T07:47:26.553Z,65.60
2023-03-02T07:49:53.935Z,66.20
2023-03-02T07:52:21.225Z,66.70
2023-03-02T07:54:48.608Z,66.20
2023-03-02T07:57:16.558Z,66.60
2023-03-02T07:59:44.330Z,67.00
2023-03-02T08:02:17.072Z,67.30
2023-03-02T08:04:44.620Z,67.30
2023-03-02T08:07:12.184Z,68.80
2023-03-02T08:09:40.391Z,67.10
2023-03-02T08:12:08.003Z,66.10
2023-03-02T08:14:35.277Z,64.70
2023-03-02T08:17:03.961Z,65.80
2023-03-02T08:19:31.622Z,66.20
2023-03-02T08:21:58.950Z,65.60
2023-03-02T08:24:26.407Z,65.40
2023-03-02T08:26:55.109Z,64.60
2023-03-02T08:29:23.815Z,65.20
2023-03-02T08:31:51.165Z,65.40
2023-03-02T08:34:18.648Z,65.00
2023-03-02T08:36:45.953Z,65.80
2023-03-02T08:39:13.338Z,66.30
2023-03-02T08:41:40.736Z,65.90
2023-03-02T08:44:09.218Z,65.70
2023-03-02T08:46:36.687Z,65.30
2023-03-02T08:49:03.994Z,65.10
2023-03-02T08:51:31.827Z,65.30
2023-03-02T08:53:59.266Z,65.20
2023-03-02T08:56:31.522Z,64.30
2023-03-02T08:59:04.538Z,63.10
2023-03-02T09:01:35.406Z,62.30
2023-03-02T09:04:05.096Z,62.30
2023-03-02T09:06:35.947Z,61.00
2023-03-02T09:09:03.981Z,60.30
2023-03-02T09:11:32.083Z,60.30
2023-03-02T09:13:59.861Z,58.90
2023-03-02T09:16:27.458Z,58.80
2023-03-02T09:18:55.322Z,58.90
2023-03-02T09:21:22.808Z,56.60
2023-03-02T09:23:53.937Z,55.30
2023-03-02T09:26:21.597Z,55.50
2023-03-02T09:28:49.013Z,54.70
2023-03-02T09:31:16.346Z,53.10
2023-03-02T09:33:43.724Z,51.80
2023-03-02T09:36:15.651Z,51.50
2023-03-02T09:38:42.955Z,50.20
2023-03-02T09:41:53.067Z,50.50
2023-03-02T09:44:53.127Z,49.80
2023-03-02T09:47:35.878Z,50.50
2023-03-02T09:50:26.920Z,50.40
2023-03-02T09:53:12.415Z,49.80
2023-03-02T09:55:39.938Z,50.90
2023-03-02T09:58:15.292Z,50.30
2023-03-02T10:00:45.018Z,49.90
2023-03-02T10:03:23.997Z,51.00
2023-03-02T10:05:54.380Z,50.70
2023-03-02T10:08:24.773Z,50.10
2023-03-02T10:11:08.313Z,50.40
2023-03-02T10:13:47.642Z,50.40
2023-03-02T10:16:49.682Z,49.90
2023-03-02T10:19:41.848Z,48.90
2023-03-02T10:22:09.028Z,47.40
2023-03-02T10:24:39.713Z,47.50
2023-03-02T10:27:28.136Z,47.70
2023-03-02T10:30:18.088Z,47.70
2023-03-02T10:32:51.149Z,48.60
2023-03-02T10:35:25.388Z,47.30
2023-03-02T10:37:58.565Z,47.10
2023-03-02T10:40:40.759Z,47.40
2023-03-02T10:43:29.221Z,48.60
2023-03-02T10:46:05.037Z,48.60
2023-03-02T10:48:32.883Z,48.60
2023-03-02T10:51:00.783Z,48.00
2023-03-02T10:53:29.195Z,48.10
2023-03-02T10:55:56.676Z,48.30
2023-03-02T10:58:26.056Z,47.60
2023-03-02T11:01:05.882Z,47.90
2023-03-02T11:03:34.275Z,47.30
2023-03-02T11:06:18.516Z,46.20
2023-03-02T11:08:45.912Z,46.20
2023-03-02T11:11:24.523Z,46.10
2023-03-02T11:13:52.432Z,45.80
2023-03-02T11:16:19.652Z,44.70
2023-03-02T11:19:07.419Z,43.20
2023-03-02T11:21:53.130Z,41.40
2023-03-02T11:24:33.570Z,42.10
2023-03-02T11:27:13.807Z,42.00
2023-03-02T11:29:47.800Z,43.10
2023-03-02T11:32:31.383Z,42.10
2023-03-02T11:35:09.854Z,42.20
2023-03-02T11:37:40.542Z,42.00
2023-03-02T11:40:13.721Z,41.00
2023-03-02T11:42:44.395Z,41.20
2023-03-02T11:45:15.646Z,40.90
2023-03-02T11:47:57.445Z,40.70
2023-03-02T11:50:29.027Z,39.20
2023-03-02T11:53:01.123Z,39.50
2023-03-02T11:55:34.319Z,40.20
2023-03-02T11:58:04.144Z,40.80
2023-03-02T12:00:37.884Z,42.40
2023-03-02T12:03:07.107Z,43.40
2023-03-02T12:05:40.245Z,42.90
2023-03-02T12:08:27.555Z,41.80
2023-03-02T12:11:09.087Z,41.10
2023-03-02T12:13:41.070Z,39.60
2023-03-02T12:16:24.196Z,39.10
2023-03-02T12:18:54.032Z,38.40
2023-03-02T12:21:25.926Z,37.90
2023-03-02T12:23:55.336Z,39.20
2023-03-02T12:26:35.671Z,39.60
2023-03-02T12:29:21.713Z,39.40
2023-03-02T12:31:56.854Z,38.90
2023-03-02T12:34:35.395Z,38.70
2023-03-02T12:37:14.266Z,39.20
2023-03-02T12:39:51.003Z,39.20
2023-03-02T12:42:49.228Z,38.90
2023-03-02T12:45:49.952Z,39.80
2023-03-02T12:48:23.348Z,40.80
2023-03-02T12:50:52.936Z,41.30
2023-03-02T12:53:20.831Z,41.30
2023-03-02T12:55:48.342Z,41.70
2023-03-02T12:58:28.991Z,42.20
2023-03-02T13:01:00.366Z,42.70
2023-03-02T13:03:30.471Z,43.70
2023-03-02T13:06:12.530Z,44.10
2023-03-02T13:08:43.069Z,44.00
2023-03-02T13:11:10.692Z,44.20
2023-03-02T13:13:45.440Z,42.80
2023-03-02T13:16:26.151Z,41.30
2023-03-02T13:19:03.465Z,40.70
2023-03-02T13:21:37.961Z,39.00
2023-03-02T13:24:26.789Z,38.80
2023-03-02T13:27:00.705Z,39.00
2023-03-02T13:29:31.916Z,38.80
2023-03-02T13:32:37.825Z,36.70
2023-03-02T13:35:19.718Z,35.70
2023-03-02T13:37:47.039Z,36.80
2023-03-02T13:40:24.466Z,38.60
2023-03-02T13:42:51.900Z,40.10
2023-03-02T13:45:30.779Z,41.30
2023-03-02T13:48:00.432Z,42.50
2023-03-02T13:50:30.616Z,43.00
2023-03-02T13:53:01.829Z,42.90
2023-03-02T13:55:29.685Z,42.80
2023-03-02T13:57:58.058Z,43.10
2023-03-02T14:00:31.081Z,43.10
2023-03-02T14:02:58.549Z,42.00
2023-03-02T14:05:33.227Z,42.10
2023-03-02T14:08:01.524Z,42.80
2023-03-02T14:10:29.402Z,42.80
2023-03-02T14:13:02.312Z,43.30
2023-03-02T14:15:29.812Z,43.90
2023-03-02T14:17:57.194Z,43.90
2023-03-02T14:20:24.479Z,43.70
2023-03-02T14:22:52.001Z,43.80
2023-03-02T14:25:20.715Z,44.20
2023-03-02T14:27:48.222Z,44.20
2023-03-02T14:30:18.863Z,43.60
2023-03-02T14:32:46.803Z,43.10
2023-03-02T14:35:16.785Z,42.00
2023-03-02T14:37:48.583Z,42.20
2023-03-02T14:40:26.027Z,43.70
2023-03-02T14:42:53.629Z,44.90
2023-03-02T14:45:21.888Z,46.60
2023-03-02T14:47:49.211Z,47.40
2023-03-02T14:50:17.500Z,47.80
2023-03-02T14:52:48.475Z,48.30
2023-03-02T14:55:27.248Z,47.90
2023-03-02T14:57:58.995Z,48.70
2023-03-02T15:00:27.374Z,48.70
2023-03-02T15:02:54.852Z,51.40
2023-03-02T15:05:22.785Z,52.10
2023-03-02T15:07:51.025Z,50.40
2023-03-02T15:10:20.998Z,49.90
2023-03-02T15:12:48.589Z,49.90
2023-03-02T15:15:16.195Z,49.70
2023-03-02T15:17:43.600Z,50.00
2023-03-02T15:20:17.449Z,50.40
2023-03-02T15:22:44.966Z,50.60
2023-03-02T15:25:12.283Z,50.80
2023-03-02T15:27:39.691Z,51.00
2023-03-02T15:30:07.628Z,51.90
2023-03-02T15:32:37.299Z,52.40
2023-03-02T15:35:05.124Z,52.80
2023-03-02T15:37:32.461Z,52.90
2023-03-02T15:39:59.892Z,53.10
2023-03-02T15:42:27.329Z,53.10
2023-03-02T15:44:55.558Z,53.10
2023-03-02T15:47:23.301Z,53.00
2023-03-02T15:49:50.604Z,52.60
2023-03-02T15:52:20.097Z,52.70
2023-03-02T15:54:47.593Z,52.70
2023-03-02T15:57:15.321Z,52.80
2023-03-02T15:59:43.794Z,52.60
2023-03-02T16:02:11.519Z,52.70
2023-03-02T16:04:38.767Z,53.10
2023-03-02T16:07:06.213Z,53.50
2023-03-02T16:09:33.465Z,53.90
2023-03-02T16:12:01.267Z,54.20
2023-03-02T16:14:28.721Z,54.60
2023-03-02T16:16:56.161Z,55.10
2023-03-02T16:19:23.932Z,55.40
2023-03-02T16:21:51.310Z,55.70
2023-03-02T16:24:18.639Z,56.00
2023-03-02T16:26:45.922Z,56.30
2023-03-02T16:29:14.201Z,56.50
2023-03-02T16:31:42.673Z,57.00
2023-03-02T16:34:10.720Z,57.50
2023-03-02T16:36:40.249Z,57.60
2023-03-02T16:39:09.696Z,58.00
2023-03-02T16:41:39.217Z,58.20
2023-03-02T16:44:07.004Z,58.70
2023-03-02T16:46:36.860Z,59.00
2023-03-02T16:49:05.136Z,59.30
2023-03-02T16:51:33.109Z,59.70
2023-03-02T16:54:00.545Z,60.30
2023-03-02T16:56:27.997Z,60.60
2023-03-02T16:58:55.711Z,61.10
2023-03-02T17:01:23.707Z,61.30
2023-03-02T17:03:51.426Z,61.80
2023-03-02T17:06:21.003Z,61.80
2023-03-02T17:08:48.942Z,62.00
2023-03-02T17:11:16.334Z,62.40
2023-03-02T17:13:43.767Z,62.60
2023-03-02T17:16:11.313Z,63.00
2023-03-02T17:18:39.157Z,63.30
2023-03-02T17:21:06.584Z,63.80
2023-03-02T17:23:34.059Z,64.30
2023-03-02T17:26:01.442Z,64.20
2023-03-02T17:28:28.680Z,64.60
2023-03-02T17:30:56.081Z,64.80
2023-03-02T17:33:23.603Z,65.00
2023-03-02T17:35:51.681Z,65.20
2023-03-02T17:38:19.024Z,65.70
2023-03-02T17:40:46.329Z,66.10
2023-03-02T17:43:13.766Z,66.30
2023-03-02T17:45:41.116Z,66.50
2023-03-02T17:48:08.417Z,66.90
2023-03-02T17:50:35.784Z,67.30
2023-03-02T17:53:03.426Z,67.60
2023-03-02T17:55:30.900Z,68.00
2023-03-02T17:57:58.311Z,68.30
2023-03-02T18:00:25.804Z,68.50
2023-03-02T18:02:53.852Z,68.90
2023-03-02T18:05:22.040Z,69.30
2023-03-02T18:07:50.326Z,69.70
2023-03-02T18:10:17.648Z,70.00
2023-03-02T18:12:45.065Z,70.20
2023-03-02T18:15:12.604Z,70.10
2023-03-02T18:17:40.033Z,70.60
2023-03-02T18:20:08.072Z,70.50
2023-03-02T18:22:35.360Z,70.70
2023-03-02T18:25:02.790Z,71.10
2023-03-02T18:27:30.402Z,71.40
2023-03-02T18:29:58.150Z,71.60
2023-03-02T18:32:26.000Z,71.80
2023-03-02T18:34:53.477Z,71.90
2023-03-02T18:37:21.130Z,72.60
2023-03-02T18:39:48.818Z,72.30
2023-03-02T18:42:16.127Z,71.70
2023-03-02T18:44:43.601Z,71.90
2023-03-02T18:47:16.825Z,72.00
2023-03-02T18:49:45.462Z,72.10
2023-03-02T18:52:16.831Z,72.40
2023-03-02T18:54:45.334Z,72.60
2023-03-02T18:57:15.962Z,72.80
2023-03-02T18:59:43.557Z,72.90
2023-03-02T19:02:14.003Z,73.10
2023-03-02T19:04:41.850Z,73.20
2023-03-02T19:07:09.306Z,73.00
2023-03-02T19:09:36.745Z,73.00
2023-03-02T19:12:04.820Z,73.00
2023-03-02T19:14:32.435Z,73.10
2023-03-02T19:17:00.000Z,72.70
2023-03-02T19:19:27.435Z,72.60
2023-03-02T19:21:54.789Z,72.80
2023-03-02T19:24:22.157Z,72.70
2023-03-02T19:26:50.607Z,72.90
2023-03-02T19:29:17.931Z,72.60
2023-03-02T19:31:45.395Z,72.70
2023-03-02T19:34:12.755Z,72.80
2023-03-02T19:36:40.216Z,72.90
2023-03-02T19:39:07.538Z,72.60
2023-03-02T19:41:35.912Z,72.30
2023-03-02T19:44:03.418Z,72.30
2023-03-02T19:46:30.863Z,72.40
2023-03-02T19:48:58.115Z,72.50
2023-03-02T19:51:26.075Z,72.40
2023-03-02T19:53:53.590Z,72.40
2023-03-02T19:56:21.326Z,72.70
2023-03-02T19:58:50.443Z,72.50
2023-03-02T20:01:22.203Z,71.80
2023-03-02T20:03:52.077Z,71.40
2023-03-02T20:06:30.617Z,71.00
2023-03-02T20:08:59.365Z,71.40
2023-03-02T20:11:27.397Z,71.00
2023-03-02T20:13:55.438Z,70.70
2023-03-02T20:16:23.255Z,70.70
2023-03-02T20:18:51.741Z,70.90
2023-03-02T20:21:19.498Z,70.90
2023-03-02T20:23:49.296Z,70.70
2023-03-02T20:26:16.697Z,69.80
2023-03-02T20:28:44.185Z,69.60
2023-03-02T20:31:12.998Z,69.20
2023-03-02T20:33:46.552Z,69.20
2023-03-02T20:36:16.383Z,68.80
2023-03-02T20:38:48.728Z,68.60
2023-03-02T20:41:16.124Z,68.20
2023-03-02T20:43:43.994Z,68.20
2023-03-02T20:46:23.555Z,67.70
2023-03-02T20:48:51.395Z,67.70
2023-03-02T20:51:20.235Z,67.60
2023-03-02T20:53:47.895Z,66.30
2023-03-02T20:56:18.190Z,66.00
2023-03-02T20:58:47.325Z,66.40
2023-03-02T21:01:16.540Z,66.50
2023-03-02T21:03:44.972Z,66.90
2023-03-02T21:06:13.970Z,66.80
2023-03-02T21:08:42.386Z,67.00
2023-03-02T21:11:16.075Z,67.40
2023-03-02T21:13:48.379Z,67.80
2023-03-02T21:16:21.314Z,68.00
2023-03-02T21:18:48.970Z,68.10
2023-03-02T21:21:16.736Z,68.10
2023-03-02T21:23:44.268Z,68.30
2023-03-02T21:26:15.459Z,67.70
2023-03-02T21:28:46.178Z,67.30
2023-03-02T21:31:16.059Z,66.90
2023-03-02T21:33:43.369Z,66.50
2023-03-02T21:36:22.214Z,65.70
2023-03-02T21:38:50.593Z,65.60
2023-03-02T21:41:19.375Z,65.60
2023-03-02T21:43:47.994Z,65.80
2023-03-02T21:46:18.470Z,65.70
2023-03-02T21:48:46.215Z,65.50
2023-03-02T21:51:14.132Z,65.90
2023-03-02T21:53:41.493Z,66.80
2023-03-02T21:56:09.451Z,67.10
2023-03-02T21:58:39.800Z,67.60
2023-03-02T22:01:07.226Z,67.50
2023-03-02T22:03:34.706Z,67.70
2023-03-02T22:06:02.137Z,68.00
2023-03-02T22:08:29.413Z,68.30
2023-03-02T22:10:56.798Z,68.20
2023-03-02T22:13:34.289Z,68.20
2023-03-02T22:16:15.912Z,68.60
2023-03-02T22:18:44.585Z,69.20
2023-03-02T22:21:20.894Z,69.80
2023-03-02T22:23:48.331Z,70.80
2023-03-02T22:26:17.459Z,71.00
2023-03-02T22:28:44.813Z,70.20
2023-03-02T22:31:20.316Z,69.70
2023-03-02T22:33:49.488Z,68.40
2023-03-02T22:36:24.660Z,67.50
2023-03-02T22:38:52.083Z,67.10
2023-03-02T22:41:20.590Z,67.10
2023-03-02T22:43:49.630Z,67.50
2023-03-02T22:46:17.619Z,68.10
2023-03-02T22:48:47.332Z,68.40
2023-03-02T22:51:28.152Z,68.60
2023-03-02T22:53:58.520Z,68.60
2023-03-02T22:56:42.847Z,68.60
2023-03-02T22:59:20.853Z,68.60
2023-03-02T23:01:49.028Z,68.80
2023-03-02T23:04:30.292Z,69.30
2023-03-02T23:07:00.830Z,69.30
2023-03-02T23:09:33.859Z,69.60
2023-03-02T23:12:26.484Z,69.90
2023-03-02T23:14:56.443Z,70.60
2023-03-02T23:17:37.373Z,70.90
2023-03-02T23:20:07.854Z,71.60
2023-03-02T23:22:36.337Z,72.30
2023-03-02T23:25:03.833Z,72.90
2023-03-02T23:27:31.142Z,73.30
2023-03-02T23:29:58.386Z,73.70
2023-03-02T23:32:25.773Z,73.60
2023-03-02T23:34:53.014Z,73.40
2023-03-02T23:37:20.422Z,73.50
2023-03-02T23:39:47.814Z,73.60
2023-03-02T23:42:15.142Z,73.70
2023-03-02T23:44:42.458Z,74.00
2023-03-02T23:47:09.728Z,74.10
2023-03-02T23:49:37.079Z,73.00
2023-03-02T23:52:05.809Z,72.50
2023-03-02T23:54:33.296Z,72.10
2023-03-02T23:57:00.676Z,71.60
2023-03-02T23:59:28.090Z,70.90
